Tobago, Trinidad and Tobago
Current Conditions -  °F | °C
As of 1:00 PM on Friday 26 Dec 2014 (Local Time) from TTCP Reporting Station
Few Clouds Few Clouds  
Wind Chill: 86°   Ceiling: Unl
Heat Index: 92°   Visibility: 6mi
Dew Point: 72°   Wind: 17mph
Humidity: 62%   Direction: 80°E
Pressure: 29.94"   Gusts: NA
Location:  11.22°N, 60.67°W
Report Text: TTCP 261700Z 08015KT 9999 FEW024 30/22 Q1014 NOSIG
Loading
Personal Weather Stations






























Interactive Weather Map New forecast layout! Learn more

10-Day Weather Forecast

Advertisements
Track Severe Weather on mobile